createdAt,value
2022-08-19T04:02:00.085Z,26.43
2022-08-19T04:05:02.563Z,26.43
2022-08-19T04:08:08.692Z,25.93
2022-08-19T04:11:18.932Z,25.93
2022-08-19T04:14:25.082Z,26.01
2022-08-19T04:17:27.429Z,26.09
2022-08-19T04:20:29.489Z,25.99
2022-08-19T04:23:32.871Z,26.13
2022-08-19T04:26:37.769Z,26.21
2022-08-19T04:29:41.298Z,26.11
2022-08-19T04:32:44.621Z,26.17
2022-08-19T04:35:49.261Z,26.21
2022-08-19T04:38:55.828Z,26.25
2022-08-19T04:42:16.653Z,26.29
2022-08-19T04:45:18.794Z,26.30
2022-08-19T04:48:28.087Z,26.30
2022-08-19T04:51:32.132Z,26.32
2022-08-19T04:54:38.549Z,26.29
2022-08-19T04:57:41.627Z,26.35
2022-08-19T05:00:44.546Z,26.30
2022-08-19T05:03:46.701Z,26.43
2022-08-19T05:06:50.202Z,26.37
2022-08-19T05:09:58.581Z,26.38
2022-08-19T05:13:01.412Z,26.46
2022-08-19T05:16:03.889Z,26.47
2022-08-19T05:19:24.990Z,26.49
2022-08-19T05:22:33.863Z,26.51
2022-08-19T05:25:40.688Z,26.60
2022-08-19T05:28:43.749Z,26.66
2022-08-19T05:31:47.056Z,26.70
2022-08-19T05:34:49.142Z,26.81
2022-08-19T05:37:54.879Z,26.95
2022-08-19T05:41:01.013Z,26.97
2022-08-19T05:44:07.369Z,26.96
2022-08-19T05:47:09.525Z,27.02
2022-08-19T05:50:11.954Z,27.06
2022-08-19T05:53:17.227Z,27.11
2022-08-19T05:56:20.380Z,27.16
2022-08-19T05:59:22.845Z,27.23
2022-08-19T06:02:28.563Z,27.29
2022-08-19T06:05:31.918Z,27.27
2022-08-19T06:08:51.028Z,27.26
2022-08-19T06:11:56.322Z,27.29
2022-08-19T06:15:01.103Z,27.34
2022-08-19T06:18:04.460Z,27.38
2022-08-19T06:21:06.541Z,27.51
2022-08-19T06:24:11.187Z,27.58
2022-08-19T06:27:13.245Z,27.58
2022-08-19T06:30:16.245Z,27.69
2022-08-19T06:33:18.718Z,27.66
2022-08-19T06:36:30.995Z,27.79
2022-08-19T06:39:36.253Z,27.90
2022-08-19T06:42:50.977Z,27.91
2022-08-19T06:45:57.882Z,28.05
2022-08-19T06:49:01.567Z,28.09
2022-08-19T06:52:04.888Z,28.15
2022-08-19T06:55:07.526Z,28.17
2022-08-19T06:58:10.361Z,28.20
2022-08-19T07:01:12.794Z,28.25
2022-08-19T07:04:17.694Z,28.41
2022-08-19T07:07:23.118Z,28.41
2022-08-19T07:10:26.182Z,28.43
2022-08-19T07:13:28.527Z,28.49
2022-08-19T07:16:31.074Z,28.61
2022-08-19T07:19:34.211Z,28.61
2022-08-19T07:22:36.533Z,28.69
2022-08-19T07:25:39.717Z,28.76
2022-08-19T07:28:46.054Z,28.81
2022-08-19T07:31:57.204Z,28.90
2022-08-19T07:35:01.461Z,29.00
2022-08-19T07:38:04.453Z,29.02
2022-08-19T07:41:07.182Z,29.06
2022-08-19T07:44:10.422Z,29.11
2022-08-19T07:47:58.758Z,29.11
2022-08-19T07:50:36.307Z,29.22
2022-08-19T07:53:39.875Z,29.22
2022-08-19T07:56:42.445Z,29.27
2022-08-19T07:59:44.646Z,29.41
2022-08-19T08:02:47.082Z,29.48
2022-08-19T08:06:08.186Z,29.53
2022-08-19T08:09:16.718Z,29.58
2022-08-19T08:12:34.047Z,29.62
2022-08-19T08:15:42.181Z,29.69
2022-08-19T08:18:50.703Z,29.68
2022-08-19T08:21:57.426Z,29.70
2022-08-19T08:25:04.059Z,29.74
2022-08-19T08:28:11.302Z,29.83
2022-08-19T08:31:21.026Z,29.90
2022-08-19T08:34:23.443Z,29.95
2022-08-19T08:37:25.791Z,30.05
2022-08-19T08:40:30.234Z,30.13
2022-08-19T08:43:38.043Z,30.19
2022-08-19T08:46:49.077Z,30.28
2022-08-19T08:50:01.979Z,30.50
2022-08-19T08:53:06.526Z,30.47
2022-08-19T08:56:13.389Z,30.47
2022-08-19T08:59:29.414Z,30.39
2022-08-19T09:02:31.757Z,30.45
2022-08-19T09:05:53.757Z,30.59
2022-08-19T09:09:11.798Z,30.56
2022-08-19T09:12:37.449Z,30.60
2022-08-19T09:15:45.786Z,30.64
2022-08-19T09:18:54.261Z,30.71
2022-08-19T09:21:57.484Z,30.88
2022-08-19T09:25:00.123Z,30.89
2022-08-19T09:28:20.579Z,30.88
2022-08-19T09:31:27.723Z,30.91
2022-08-19T09:34:30.376Z,30.98
2022-08-19T09:37:40.460Z,31.07
2022-08-19T09:40:42.885Z,31.08
2022-08-19T09:43:47.923Z,31.13
2022-08-19T09:46:51.790Z,31.20
2022-08-19T09:49:53.858Z,31.16
2022-08-19T09:52:57.888Z,31.29
2022-08-19T09:56:00.125Z,31.31
2022-08-19T09:59:06.510Z,31.35
2022-08-19T10:02:10.838Z,31.53
2022-08-19T10:05:32.139Z,31.62
2022-08-19T10:08:37.426Z,31.63
2022-08-19T10:11:54.519Z,31.67
2022-08-19T10:14:57.150Z,31.66
2022-08-19T10:18:00.189Z,31.67
2022-08-19T10:21:12.568Z,31.68
2022-08-19T10:24:15.030Z,31.73
2022-08-19T10:27:20.682Z,31.73
2022-08-19T10:30:23.101Z,31.82
2022-08-19T10:33:40.935Z,31.88
2022-08-19T10:36:56.241Z,31.93
2022-08-19T10:39:59.639Z,31.92
2022-08-19T10:43:01.995Z,32.00
2022-08-19T10:46:04.758Z,32.08
2022-08-19T10:49:12.369Z,32.18
2022-08-19T10:52:32.817Z,32.19
2022-08-19T10:55:54.676Z,32.15
2022-08-19T10:58:58.413Z,32.16
2022-08-19T11:02:02.125Z,32.28
2022-08-19T11:05:12.441Z,32.39
2022-08-19T11:08:22.762Z,32.41
2022-08-19T11:11:27.758Z,32.48
2022-08-19T11:14:32.117Z,32.52
2022-08-19T11:17:36.891Z,32.42
2022-08-19T11:20:39.230Z,32.58
2022-08-19T11:23:41.477Z,32.62
2022-08-19T11:26:45.434Z,32.56
2022-08-19T11:29:47.631Z,32.60
2022-08-19T11:32:50.422Z,32.62
2022-08-19T11:35:53.049Z,32.66
2022-08-19T11:38:55.859Z,32.77
2022-08-19T11:42:02.726Z,32.83
2022-08-19T11:45:05.599Z,32.90
2022-08-19T11:48:07.737Z,32.95
2022-08-19T11:51:13.181Z,32.93
2022-08-19T11:54:17.318Z,32.94
2022-08-19T11:57:20.721Z,33.08
2022-08-19T12:00:22.876Z,33.04
2022-08-19T12:03:25.290Z,33.15
2022-08-19T12:06:32.698Z,33.15
2022-08-19T12:09:35.416Z,33.22
2022-08-19T12:12:41.389Z,33.10
2022-08-19T12:15:43.981Z,33.13
2022-08-19T12:18:49.482Z,33.11
2022-08-19T12:21:54.026Z,33.35
2022-08-19T12:24:56.281Z,33.32
2022-08-19T12:27:59.357Z,33.17
2022-08-19T12:31:01.553Z,33.24
2022-08-19T12:34:03.937Z,33.43
2022-08-19T12:37:07.203Z,33.28
2022-08-19T12:40:10.640Z,33.35
2022-08-19T12:43:12.817Z,33.40
2022-08-19T12:46:15.234Z,33.37
2022-08-19T12:49:30.417Z,33.34
2022-08-19T12:52:43.127Z,33.29
2022-08-19T12:55:46.990Z,33.28
2022-08-19T12:58:50.774Z,33.31
2022-08-19T13:01:55.177Z,33.29
2022-08-19T13:04:57.763Z,33.33
2022-08-19T13:08:00.691Z,33.39
2022-08-19T13:11:12.714Z,33.46
2022-08-19T13:14:14.777Z,33.49
2022-08-19T13:17:17.322Z,33.56
2022-08-19T13:20:21.177Z,33.63
2022-08-19T13:23:23.522Z,33.68
2022-08-19T13:26:25.609Z,33.72
2022-08-19T13:29:46.385Z,33.92
2022-08-19T13:33:07.075Z,33.76
2022-08-19T13:36:09.409Z,33.68
2022-08-19T13:39:13.368Z,33.60
2022-08-19T13:42:15.722Z,33.50
2022-08-19T13:45:21.240Z,33.45
2022-08-19T13:48:24.508Z,33.54
2022-08-19T13:51:26.744Z,33.48
2022-08-19T13:54:29.118Z,33.53
2022-08-19T13:57:31.430Z,33.68
2022-08-19T14:00:39.701Z,33.69
2022-08-19T14:03:42.045Z,33.41
2022-08-19T14:06:44.119Z,33.07
2022-08-19T14:09:46.441Z,32.77
2022-08-19T14:12:56.351Z,32.54
2022-08-19T14:15:59.046Z,32.32
2022-08-19T14:19:01.968Z,32.16
2022-08-19T14:22:06.210Z,32.13
2022-08-19T14:25:11.037Z,32.02
2022-08-19T14:28:13.362Z,32.04
2022-08-19T14:31:19.781Z,32.01
2022-08-19T14:34:23.110Z,31.96
2022-08-19T14:37:25.205Z,31.89
